Time;durP1;ratioP1;P1;durP2;ratioP2;P2;SDS_P1;SDS_P2;PMS_P1;PMS_P2;Temp;Humidity;BMP_temperature;BMP_pressure;BME280_temperature;BME280_humidity;BME280_pressure;Samples;Min_cycle;Max_cycle;Signal;HPM_P1;HPM_P2
2022/04/03 00:01:04;;;;;;;47.95;19.42;;;;;;;;;;6287756;28;20095;-77
2022/04/03 00:04:09;;;;;;;42.58;20.15;;;;;;;;;;6289535;28;20059;-78
2022/04/03 00:07:12;;;;;;;53.33;19.42;;;;;;;;;;6290978;28;20461;-77
2022/04/03 00:10:17;;;;;;;49.85;19.42;;;;;;;;;;6289256;28;20040;-77
2022/04/03 00:13:20;;;;;;;46.78;19.38;;;;;;;;;;6288667;28;20401;-77
2022/04/03 00:16:23;;;;;;;48.17;19.42;;;;;;;;;;6288375;28;20041;-77
2022/04/03 00:19:26;;;;;;;52.97;19.65;;;;;;;;;;6286919;28;20048;-77
2022/04/03 00:22:29;;;;;;;41.80;18.30;;;;;;;;;;6290672;28;20383;-78
2022/04/03 00:25:34;;;;;;;41.45;18.88;;;;;;;;;;6290579;28;20048;-78
2022/04/03 00:28:37;;;;;;;27.75;14.35;;;;;;;;;;6289379;28;20048;-78
2022/04/03 00:31:42;;;;;;;32.45;15.77;;;;;;;;;;6287501;28;20040;-78
2022/04/03 00:34:48;;;;;;;33.72;16.17;;;;;;;;;;6289811;28;20044;-79
2022/04/03 00:37:52;;;;;;;32.08;15.68;;;;;;;;;;6291256;28;20044;-80
2022/04/03 00:40:59;;;;;;;27.70;13.95;;;;;;;;;;6290487;28;20048;-81
2022/04/03 00:44:02;;;;;;;34.00;15.30;;;;;;;;;;6291000;28;20398;-82
2022/04/03 00:47:06;;;;;;;33.83;15.55;;;;;;;;;;6291129;28;20056;-82
2022/04/03 00:50:10;;;;;;;40.20;17.77;;;;;;;;;;6291204;28;20051;-82
2022/04/03 00:53:13;;;;;;;43.38;17.27;;;;;;;;;;6289999;28;20118;-83
2022/04/03 00:56:17;;;;;;;44.97;17.35;;;;;;;;;;6291197;28;20478;-82
2022/04/03 00:59:20;;;;;;;42.03;17.48;;;;;;;;;;6289828;28;20041;-80
2022/04/03 01:02:23;;;;;;;38.78;17.27;;;;;;;;;;6291355;28;20041;-80
2022/04/03 01:05:26;;;;;;;46.47;17.52;;;;;;;;;;6289313;28;20051;-80
2022/04/03 01:08:29;;;;;;;37.42;16.52;;;;;;;;;;6289479;28;20040;-80
2022/04/03 01:11:33;;;;;;;31.98;16.08;;;;;;;;;;6289964;28;20119;-82
2022/04/03 01:14:37;;;;;;;33.75;14.95;;;;;;;;;;6290802;28;20497;-82
2022/04/03 01:17:40;;;;;;;46.72;16.65;;;;;;;;;;6289512;28;20084;-83
2022/04/03 01:20:43;;;;;;;41.30;16.73;;;;;;;;;;6290947;28;20041;-84
2022/04/03 01:23:46;;;;;;;30.73;12.88;;;;;;;;;;6291169;28;20124;-85
2022/04/03 01:26:52;;;;;;;23.20;10.93;;;;;;;;;;6289442;28;20556;-87
2022/04/03 01:29:54;;;;;;;16.58;8.20;;;;;;;;;;6291398;28;20067;-86
2022/04/03 01:32:58;;;;;;;14.90;7.82;;;;;;;;;;6295889;28;20048;-87
2022/04/03 01:36:01;;;;;;;16.80;8.88;;;;;;;;;;6295247;28;20123;-88
2022/04/03 01:39:06;;;;;;;17.90;9.00;;;;;;;;;;6295276;28;20479;-87
2022/04/03 01:42:12;;;;;;;20.48;9.15;;;;;;;;;;6295389;28;20078;-86
2022/04/03 01:45:16;;;;;;;18.70;9.60;;;;;;;;;;6295697;28;20053;-85
2022/04/03 01:48:19;;;;;;;18.13;9.43;;;;;;;;;;6294604;28;20060;-85
2022/04/03 01:51:23;;;;;;;18.35;9.80;;;;;;;;;;6294310;28;20055;-86
2022/04/03 01:54:26;;;;;;;23.85;10.40;;;;;;;;;;6292738;28;20085;-87
2022/04/03 01:57:30;;;;;;;22.50;9.90;;;;;;;;;;6293164;28;20053;-87
2022/04/03 02:00:34;;;;;;;19.58;9.75;;;;;;;;;;6294028;28;20054;-87
2022/04/03 02:03:37;;;;;;;22.33;10.55;;;;;;;;;;6291654;28;20048;-89
2022/04/03 02:06:40;;;;;;;22.38;10.02;;;;;;;;;;6291874;28;20158;-89
2022/04/03 02:09:44;;;;;;;20.85;10.02;;;;;;;;;;6294278;28;20119;-89
2022/04/03 02:12:48;;;;;;;21.20;9.57;;;;;;;;;;6292770;28;20111;-88
2022/04/03 02:15:52;;;;;;;17.25;9.20;;;;;;;;;;6291857;28;20046;-87
2022/04/03 02:18:55;;;;;;;21.55;9.93;;;;;;;;;;6293124;28;20384;-86
2022/04/03 02:21:59;;;;;;;20.50;9.27;;;;;;;;;;6292056;28;20040;-85
2022/04/03 02:25:03;;;;;;;19.50;9.30;;;;;;;;;;6293536;28;20471;-83
2022/04/03 02:28:10;;;;;;;131.98;70.55;;;;;;;;;;6294364;28;20406;-83
2022/04/03 02:31:14;;;;;;;14.20;8.25;;;;;;;;;;6292087;28;20040;-85
2022/04/03 02:34:17;;;;;;;15.43;8.00;;;;;;;;;;6290347;28;20044;-84
2022/04/03 02:37:20;;;;;;;16.48;8.48;;;;;;;;;;6292932;28;20048;-83
2022/04/03 02:40:23;;;;;;;15.15;7.95;;;;;;;;;;6293113;28;20048;-85
2022/04/03 02:43:30;;;;;;;17.15;8.85;;;;;;;;;;6293376;28;20053;-83
2022/04/03 02:46:34;;;;;;;14.98;7.78;;;;;;;;;;6293852;28;20515;-84
2022/04/03 02:49:37;;;;;;;17.45;9.43;;;;;;;;;;6291803;28;20040;-83
2022/04/03 02:52:40;;;;;;;16.92;9.38;;;;;;;;;;6292278;28;20044;-83
2022/04/03 02:55:46;;;;;;;16.90;8.57;;;;;;;;;;6292309;28;20040;-80
2022/04/03 02:58:51;;;;;;;19.02;8.98;;;;;;;;;;6293404;28;20044;-81
2022/04/03 03:01:54;;;;;;;17.55;9.38;;;;;;;;;;6292749;28;20055;-81
2022/04/03 03:04:57;;;;;;;19.23;9.30;;;;;;;;;;6291643;28;20044;-80
2022/04/03 03:08:00;;;;;;;19.60;9.23;;;;;;;;;;6275739;28;20048;-82
2022/04/03 03:11:05;;;;;;;23.27;10.55;;;;;;;;;;6291789;28;20045;-80
2022/04/03 03:14:10;;;;;;;18.02;9.23;;;;;;;;;;6292867;28;20058;-81
2022/04/03 03:17:13;;;;;;;24.50;9.48;;;;;;;;;;6291974;28;20041;-80
2022/04/03 03:20:16;;;;;;;17.50;9.20;;;;;;;;;;6291470;28;20127;-81
2022/04/03 03:23:20;;;;;;;20.85;10.52;;;;;;;;;;6292354;28;20052;-81
2022/04/03 03:26:25;;;;;;;19.63;9.98;;;;;;;;;;6291286;28;20052;-82
2022/04/03 03:29:30;;;;;;;19.65;9.68;;;;;;;;;;6291621;28;20078;-82
2022/04/03 03:32:33;;;;;;;20.63;10.35;;;;;;;;;;6291048;28;20351;-82
2022/04/03 03:35:36;;;;;;;18.17;9.38;;;;;;;;;;6292438;28;20525;-83
2022/04/03 03:38:41;;;;;;;26.30;11.40;;;;;;;;;;6291428;28;20127;-83
2022/04/03 03:41:45;;;;;;;21.33;9.32;;;;;;;;;;6290751;28;20044;-83
2022/04/03 03:44:49;;;;;;;17.67;8.60;;;;;;;;;;6290588;28;20483;-83
2022/04/03 03:47:52;;;;;;;21.23;10.00;;;;;;;;;;6290603;28;20044;-83
2022/04/03 03:50:56;;;;;;;24.02;10.57;;;;;;;;;;6274648;28;20407;-83
2022/04/03 03:53:59;;;;;;;19.60;9.27;;;;;;;;;;6289575;28;20044;-83
2022/04/03 03:57:03;;;;;;;23.70;10.57;;;;;;;;;;6290659;28;20166;-83
2022/04/03 04:00:10;;;;;;;22.00;10.48;;;;;;;;;;6291325;28;20047;-83
2022/04/03 04:03:16;;;;;;;22.60;10.68;;;;;;;;;;6289957;28;20052;-83
2022/04/03 04:06:19;;;;;;;26.23;10.98;;;;;;;;;;6291483;28;20044;-83
2022/04/03 04:09:22;;;;;;;18.90;9.75;;;;;;;;;;6290206;28;20510;-83
2022/04/03 04:12:25;;;;;;;18.67;9.68;;;;;;;;;;6290298;28;20071;-84
2022/04/03 04:15:30;;;;;;;22.17;10.45;;;;;;;;;;6289337;28;20190;-83
2022/04/03 04:18:33;;;;;;;24.70;10.97;;;;;;;;;;6288398;28;20040;-82
2022/04/03 04:21:37;;;;;;;22.45;10.80;;;;;;;;;;6290486;28;20050;-84
2022/04/03 04:24:40;;;;;;;24.50;10.90;;;;;;;;;;6287874;28;20044;-84
2022/04/03 04:27:43;;;;;;;18.10;9.15;;;;;;;;;;6287960;28;20094;-85
2022/04/03 04:30:48;;;;;;;24.70;10.32;;;;;;;;;;6288963;28;20130;-87
2022/04/03 04:33:51;;;;;;;21.38;10.32;;;;;;;;;;6290612;28;20145;-85
2022/04/03 04:36:55;;;;;;;20.17;9.98;;;;;;;;;;6288859;28;20056;-85
2022/04/03 04:39:58;;;;;;;26.35;11.00;;;;;;;;;;6291619;28;20048;-84
2022/04/03 04:43:01;;;;;;;21.35;9.43;;;;;;;;;;6290623;28;20509;-82
2022/04/03 04:46:06;;;;;;;18.80;10.15;;;;;;;;;;6290708;28;20080;-84
2022/04/03 04:49:09;;;;;;;25.88;11.35;;;;;;;;;;6291328;28;20392;-82
2022/04/03 04:52:12;;;;;;;20.02;10.13;;;;;;;;;;6290772;28;20049;-84
2022/04/03 04:55:16;;;;;;;24.63;10.82;;;;;;;;;;6291264;28;20044;-84
2022/04/03 04:58:18;;;;;;;25.00;10.73;;;;;;;;;;6290085;28;20064;-85
2022/04/03 05:01:24;;;;;;;24.52;10.88;;;;;;;;;;6291525;28;20494;-85
2022/04/03 05:04:27;;;;;;;24.92;11.57;;;;;;;;;;6292500;28;20056;-85
2022/04/03 05:07:31;;;;;;;23.73;11.25;;;;;;;;;;6295659;28;20417;-84
2022/04/03 05:10:34;;;;;;;20.13;10.63;;;;;;;;;;6295644;28;20051;-81
2022/04/03 05:13:38;;;;;;;24.88;11.35;;;;;;;;;;6296066;28;20049;-81
2022/04/03 05:16:45;;;;;;;21.08;10.98;;;;;;;;;;6295361;28;20056;-81
2022/04/03 05:19:48;;;;;;;22.92;11.43;;;;;;;;;;6295542;28;20048;-81
2022/04/03 05:22:54;;;;;;;21.87;10.53;;;;;;;;;;6295614;28;20571;-83
2022/04/03 05:25:57;;;;;;;26.08;11.60;;;;;;;;;;6294177;28;20040;-83
2022/04/03 05:29:00;;;;;;;21.05;10.55;;;;;;;;;;6293943;28;20044;-83
2022/04/03 05:32:05;;;;;;;23.02;10.65;;;;;;;;;;6295135;28;20055;-82
2022/04/03 05:35:12;;;;;;;21.38;10.73;;;;;;;;;;6295806;28;20052;-82
2022/04/03 05:38:18;;;;;;;16.90;9.27;;;;;;;;;;6294859;28;20433;-83
2022/04/03 05:41:21;;;;;;;24.52;11.93;;;;;;;;;;6294070;28;20434;-82
2022/04/03 05:44:29;;;;;;;18.48;8.85;;;;;;;;;;6294635;28;20556;-82
2022/04/03 05:47:34;;;;;;;20.90;10.20;;;;;;;;;;6295000;28;20091;-82
2022/04/03 05:50:41;;;;;;;22.58;10.80;;;;;;;;;;6293594;28;20048;-84
2022/04/03 05:53:45;;;;;;;21.58;10.57;;;;;;;;;;6292887;28;20049;-84
2022/04/03 05:56:48;;;;;;;27.92;12.13;;;;;;;;;;6292615;28;20051;-83
2022/04/03 05:59:51;;;;;;;23.92;11.50;;;;;;;;;;6294890;28;20123;-87
2022/04/03 06:02:57;;;;;;;20.80;9.95;;;;;;;;;;6293566;28;20449;-85
2022/04/03 06:06:00;;;;;;;22.30;10.65;;;;;;;;;;6295181;28;20175;-84
2022/04/03 06:09:04;;;;;;;22.10;9.98;;;;;;;;;;6295177;28;20091;-83
2022/04/03 06:12:08;;;;;;;23.30;10.40;;;;;;;;;;6293280;28;20040;-81
2022/04/03 06:15:14;;;;;;;19.92;10.85;;;;;;;;;;6294387;28;20044;-81
2022/04/03 06:18:20;;;;;;;19.00;9.55;;;;;;;;;;6294602;28;20486;-79
2022/04/03 06:21:26;;;;;;;16.70;8.90;;;;;;;;;;6293001;28;20091;-79
2022/04/03 06:24:29;;;;;;;17.48;8.55;;;;;;;;;;6292864;28;20044;-78
2022/04/03 06:27:35;;;;;;;18.38;8.82;;;;;;;;;;6294540;28;20040;-78
2022/04/03 06:30:38;;;;;;;17.42;8.77;;;;;;;;;;6294682;28;20045;-77
2022/04/03 06:33:43;;;;;;;14.73;8.32;;;;;;;;;;6292648;28;20044;-76
2022/04/03 06:36:45;;;;;;;15.82;9.10;;;;;;;;;;6294330;28;20570;-76
2022/04/03 06:39:48;;;;;;;17.52;9.77;;;;;;;;;;6294348;28;20501;-76
2022/04/03 06:42:52;;;;;;;18.75;10.18;;;;;;;;;;6292400;28;20052;-76
2022/04/03 06:45:58;;;;;;;21.63;11.00;;;;;;;;;;6292097;28;20055;-76
2022/04/03 06:49:04;;;;;;;26.23;13.00;;;;;;;;;;6292976;28;20361;-77
2022/04/03 06:52:08;;;;;;;27.23;14.43;;;;;;;;;;6292160;28;20041;-76
2022/04/03 06:55:11;;;;;;;29.27;14.93;;;;;;;;;;6293536;28;20127;-77
2022/04/03 06:58:14;;;;;;;30.13;14.00;;;;;;;;;;6292317;28;20055;-77
2022/04/03 07:01:17;;;;;;;26.98;14.10;;;;;;;;;;6293728;28;20051;-76
2022/04/03 07:04:22;;;;;;;32.40;16.00;;;;;;;;;;6293086;28;20048;-76
2022/04/03 07:07:25;;;;;;;24.58;14.38;;;;;;;;;;6292918;28;20576;-76
2022/04/03 07:10:31;;;;;;;;;;;;;;;;;;6292890;28;20044;-76
2022/04/03 07:13:33;;;;;;;23.60;13.63;;;;;;;;;;6291694;28;19921;-76
2022/04/03 07:16:36;;;;;;;32.60;17.35;;;;;;;;;;6292878;28;20057;-77
2022/04/03 07:19:41;;;;;;;29.90;17.10;;;;;;;;;;6291695;28;20479;-77
2022/04/03 07:22:44;;;;;;;32.75;18.00;;;;;;;;;;6292935;28;20052;-76
2022/04/03 07:25:47;;;;;;;39.42;19.33;;;;;;;;;;6292475;28;20040;-76
2022/04/03 07:28:50;;;;;;;36.97;18.85;;;;;;;;;;6292124;28;20437;-77
2022/04/03 07:31:53;;;;;;;33.88;18.77;;;;;;;;;;6291887;28;20079;-77
2022/04/03 07:34:57;;;;;;;35.60;19.20;;;;;;;;;;6291109;28;20037;-76
2022/04/03 07:38:00;;;;;;;43.97;22.13;;;;;;;;;;6292122;28;20040;-76
2022/04/03 07:41:04;;;;;;;44.17;21.67;;;;;;;;;;6292694;28;20040;-78
2022/04/03 07:44:08;;;;;;;46.33;23.20;;;;;;;;;;6292146;28;20045;-76
2022/04/03 07:47:17;;;;;;;47.50;24.83;;;;;;;;;;6291828;28;20110;-76
2022/04/03 07:50:21;;;;;;;51.03;25.02;;;;;;;;;;6292713;28;20175;-77
2022/04/03 07:53:24;;;;;;;50.38;25.58;;;;;;;;;;6290733;28;20491;-76
2022/04/03 07:56:27;;;;;;;56.70;27.90;;;;;;;;;;6290039;28;20049;-74
2022/04/03 07:59:30;;;;;;;53.00;27.92;;;;;;;;;;6291293;28;20052;-77
2022/04/03 08:02:33;;;;;;;50.38;27.00;;;;;;;;;;6290821;28;20055;-77
2022/04/03 08:05:38;;;;;;;49.00;27.83;;;;;;;;;;6292150;28;20502;-75
2022/04/03 08:08:41;;;;;;;48.38;27.95;;;;;;;;;;6290627;28;20048;-75
2022/04/03 08:11:44;;;;;;;55.10;27.10;;;;;;;;;;6289103;28;20110;-77
2022/04/03 08:14:47;;;;;;;60.80;29.90;;;;;;;;;;6291979;28;20071;-76
2022/04/03 08:17:50;;;;;;;43.70;24.25;;;;;;;;;;6290512;28;20491;-78
2022/04/03 08:20:54;;;;;;;46.22;25.30;;;;;;;;;;6290338;28;20059;-77
2022/04/03 08:23:58;;;;;;;48.58;24.83;;;;;;;;;;6289368;28;20310;-76
2022/04/03 08:27:00;;;;;;;39.38;22.63;;;;;;;;;;6288619;28;20047;-77
2022/04/03 08:30:04;;;;;;;36.78;21.42;;;;;;;;;;6289947;28;20051;-77
2022/04/03 08:33:08;;;;;;;39.92;22.88;;;;;;;;;;6290956;28;20496;-76
2022/04/03 08:36:16;;;;;;;40.63;22.20;;;;;;;;;;6291106;28;20040;-76
2022/04/03 08:39:19;;;;;;;36.35;21.23;;;;;;;;;;6292019;28;20391;-76
2022/04/03 08:42:24;;;;;;;38.45;20.77;;;;;;;;;;6296688;28;20056;-75
2022/04/03 08:45:29;;;;;;;44.83;24.00;;;;;;;;;;6296124;28;20052;-76
2022/04/03 08:48:35;;;;;;;37.75;21.25;;;;;;;;;;6296251;28;20060;-76
2022/04/03 08:51:40;;;;;;;38.10;19.85;;;;;;;;;;6296501;28;20402;-76
2022/04/03 08:54:43;;;;;;;38.17;21.95;;;;;;;;;;6297283;28;20411;-76
2022/04/03 08:57:46;;;;;;;32.47;20.35;;;;;;;;;;6294921;28;20075;-76
2022/04/03 09:00:49;;;;;;;43.67;23.52;;;;;;;;;;6295956;28;20044;-75
2022/04/03 09:03:52;;;;;;;38.75;23.92;;;;;;;;;;6296667;28;20179;-76
2022/04/03 09:06:57;;;;;;;40.63;23.27;;;;;;;;;;6295037;28;20044;-76
2022/04/03 09:10:07;;;;;;;34.15;21.92;;;;;;;;;;6294566;28;20879;-77
2022/04/03 09:13:10;;;;;;;41.03;21.85;;;;;;;;;;6294471;28;20045;-75
2022/04/03 09:16:13;;;;;;;36.63;21.73;;;;;;;;;;6295019;28;20040;-76
2022/04/03 09:19:17;;;;;;;45.95;23.23;;;;;;;;;;6294649;28;20044;-77
2022/04/03 09:22:29;;;;;;;35.78;22.13;;;;;;;;;;6294134;28;20166;-76
2022/04/03 09:25:35;;;;;;;41.60;20.67;;;;;;;;;;6294475;28;20051;-76
2022/04/03 09:28:38;;;;;;;32.22;18.75;;;;;;;;;;6295989;28;20045;-76
2022/04/03 09:31:44;;;;;;;29.08;17.88;;;;;;;;;;6294386;28;20066;-76
2022/04/03 09:34:47;;;;;;;36.00;19.73;;;;;;;;;;6302244;28;20055;-76
2022/04/03 09:38:08;;;;;;;35.53;19.60;;;;;;;;;;6304186;28;20044;-76
2022/04/03 09:41:14;;;;;;;32.30;17.13;;;;;;;;;;6296959;28;20406;-76
2022/04/03 09:44:18;;;;;;;34.72;18.52;;;;;;;;;;6295440;28;20086;-76
2022/04/03 09:47:24;;;;;;;33.13;18.77;;;;;;;;;;6293571;28;20075;-76
2022/04/03 09:50:27;;;;;;;31.52;17.80;;;;;;;;;;6293999;28;20048;-76
2022/04/03 09:53:40;;;;;;;32.88;18.25;;;;;;;;;;6293307;28;20475;-75
2022/04/03 09:56:45;;;;;;;31.50;16.70;;;;;;;;;;6275026;28;20486;-76
2022/04/03 09:59:50;;;;;;;27.73;16.88;;;;;;;;;;6293343;28;20535;-74
2022/04/03 10:02:57;;;;;;;28.77;17.13;;;;;;;;;;6294670;28;20041;-74
2022/04/03 10:06:00;;;;;;;31.05;17.80;;;;;;;;;;6293848;28;20040;-75
2022/04/03 10:09:07;;;;;;;27.00;15.85;;;;;;;;;;6291822;28;20040;-74
2022/04/03 10:12:10;;;;;;;33.25;19.23;;;;;;;;;;6294595;28;20479;-76
2022/04/03 10:15:16;;;;;;;33.70;20.40;;;;;;;;;;6291110;28;20048;-78
2022/04/03 10:18:19;;;;;;;27.83;16.70;;;;;;;;;;6291212;28;20122;-74
2022/04/03 10:21:25;;;;;;;28.73;17.05;;;;;;;;;;6292666;28;20478;-76
2022/04/03 10:24:30;;;;;;;25.70;16.30;;;;;;;;;;6293400;28;20046;-76
2022/04/03 10:27:34;;;;;;;26.47;15.63;;;;;;;;;;6293391;28;20063;-74
2022/04/03 10:30:38;;;;;;;24.55;14.80;;;;;;;;;;6291723;28;20036;-75
2022/04/03 10:33:43;;;;;;;25.75;15.90;;;;;;;;;;6293210;28;20045;-74
2022/04/03 10:36:47;;;;;;;25.65;15.00;;;;;;;;;;6294088;28;20045;-77
2022/04/03 10:39:54;;;;;;;25.27;14.70;;;;;;;;;;6293621;28;20056;-74
2022/04/03 10:42:58;;;;;;;27.33;15.38;;;;;;;;;;6294393;28;20040;-75
2022/04/03 10:46:04;;;;;;;26.00;14.65;;;;;;;;;;6292597;28;20052;-74
2022/04/03 10:49:15;;;;;;;28.23;15.55;;;;;;;;;;6293400;28;20040;-78
2022/04/03 10:52:26;;;;;;;26.25;14.07;;;;;;;;;;6293488;28;20044;-75
2022/04/03 10:55:35;;;;;;;27.13;13.70;;;;;;;;;;6294202;28;20052;-77
2022/04/03 10:58:39;;;;;;;23.83;14.10;;;;;;;;;;6291988;28;20040;-75
2022/04/03 11:01:44;;;;;;;22.58;13.32;;;;;;;;;;6292606;28;20045;-75
2022/04/03 11:04:47;;;;;;;25.48;13.50;;;;;;;;;;6292159;28;20049;-75
2022/04/03 11:07:51;;;;;;;24.17;14.38;;;;;;;;;;6293545;28;20648;-75
2022/04/03 11:10:59;;;;;;;27.20;15.25;;;;;;;;;;6292047;28;20056;-74
2022/04/03 11:14:02;;;;;;;25.02;14.10;;;;;;;;;;6292931;28;20047;-76
2022/04/03 11:17:05;;;;;;;23.05;14.38;;;;;;;;;;6292421;28;20491;-75
2022/04/03 11:20:08;;;;;;;22.98;13.07;;;;;;;;;;6291472;28;20044;-75
2022/04/03 11:23:14;;;;;;;22.27;13.70;;;;;;;;;;6292494;28;20040;-76
2022/04/03 11:26:20;;;;;;;19.70;13.15;;;;;;;;;;6291963;28;20040;-76
2022/04/03 11:29:33;;;;;;;21.50;12.68;;;;;;;;;;6291226;28;20048;-76
2022/04/03 11:32:40;;;;;;;24.30;13.15;;;;;;;;;;6290084;28;20513;-76
2022/04/03 11:35:46;;;;;;;21.63;13.30;;;;;;;;;;6292616;28;20049;-75
2022/04/03 11:38:50;;;;;;;19.40;12.55;;;;;;;;;;6293208;28;20067;-76
2022/04/03 11:41:55;;;;;;;18.52;12.38;;;;;;;;;;6292288;28;20044;-77
2022/04/03 11:44:58;;;;;;;18.42;11.38;;;;;;;;;;6290806;28;20475;-75
2022/04/03 11:48:13;;;;;;;17.05;11.57;;;;;;;;;;6291327;28;20515;-74
2022/04/03 11:51:18;;;;;;;20.80;11.23;;;;;;;;;;6292890;28;20052;-74
2022/04/03 11:54:25;;;;;;;23.02;11.52;;;;;;;;;;6290670;28;20070;-74
2022/04/03 11:57:29;;;;;;;18.05;10.93;;;;;;;;;;6288370;28;20384;-75
2022/04/03 12:00:33;;;;;;;17.60;11.73;;;;;;;;;;6291055;28;20044;-76
2022/04/03 12:03:42;;;;;;;20.92;10.95;;;;;;;;;;6290115;28;20053;-74
2022/04/03 12:06:46;;;;;;;20.02;12.20;;;;;;;;;;6289040;28;20048;-74
2022/04/03 12:09:50;;;;;;;20.75;12.13;;;;;;;;;;6288696;28;20044;-75
2022/04/03 12:12:55;;;;;;;20.15;11.27;;;;;;;;;;6290568;28;20044;-74
2022/04/03 12:15:58;;;;;;;18.33;10.38;;;;;;;;;;6291041;28;20040;-76
2022/04/03 12:19:04;;;;;;;17.60;11.23;;;;;;;;;;6288513;28;20472;-76
2022/04/03 12:22:10;;;;;;;19.67;11.32;;;;;;;;;;6287594;28;20049;-75
2022/04/03 12:25:13;;;;;;;18.92;11.50;;;;;;;;;;6288127;28;20071;-77
2022/04/03 12:28:21;;;;;;;18.30;11.55;;;;;;;;;;6286491;28;20045;-76
2022/04/03 12:31:28;;;;;;;17.05;11.13;;;;;;;;;;6288452;28;20507;-76
2022/04/03 12:34:31;;;;;;;16.10;10.63;;;;;;;;;;6287977;28;20111;-75
2022/04/03 12:37:35;;;;;;;21.63;12.27;;;;;;;;;;6287956;28;20475;-75
2022/04/03 12:40:45;;;;;;;17.63;11.38;;;;;;;;;;6286939;28;20118;-76
2022/04/03 12:43:50;;;;;;;17.23;11.43;;;;;;;;;;6289391;28;20415;-73
2022/04/03 12:46:53;;;;;;;17.33;11.10;;;;;;;;;;6288434;28;20518;-76
2022/04/03 12:50:10;;;;;;;15.65;11.10;;;;;;;;;;6288353;28;20630;-76
2022/04/03 12:53:15;;;;;;;17.05;10.85;;;;;;;;;;6291708;28;20051;-76
2022/04/03 12:58:24;;;;;;;17.02;10.63;;;;;;;;;;6291940;28;20048;-76
2022/04/03 12:59:52;;;;;;;17.15;9.82;;;;;;;;;;6312291;28;20268;-76
2022/04/03 13:02:55;;;;;;;12.23;8.90;;;;;;;;;;6318338;28;20036;-76
2022/04/03 13:05:59;;;;;;;18.90;10.90;;;;;;;;;;6319894;28;20044;-76
2022/04/03 13:09:06;;;;;;;14.38;10.23;;;;;;;;;;6316735;28;20048;-76
2022/04/03 13:12:09;;;;;;;19.63;10.60;;;;;;;;;;6316061;28;20560;-76
2022/04/03 13:15:13;;;;;;;18.95;9.73;;;;;;;;;;6315662;28;20040;-75
2022/04/03 13:18:16;;;;;;;16.08;9.95;;;;;;;;;;6316831;28;20036;-77
2022/04/03 13:21:20;;;;;;;16.50;9.75;;;;;;;;;;6315843;28;20405;-75
2022/04/03 13:24:23;;;;;;;13.55;9.73;;;;;;;;;;6315907;28;20048;-75
2022/04/03 13:27:28;;;;;;;13.90;9.65;;;;;;;;;;6320577;28;20429;-75
2022/04/03 13:30:35;;;;;;;14.40;9.30;;;;;;;;;;6321074;28;20051;-74
2022/04/03 13:33:38;;;;;;;15.43;9.27;;;;;;;;;;6321006;28;20059;-76
2022/04/03 13:36:41;;;;;;;15.68;9.32;;;;;;;;;;6320824;28;20479;-74
2022/04/03 13:39:47;;;;;;;15.73;9.50;;;;;;;;;;6319893;28;20036;-77
2022/04/03 13:42:50;;;;;;;15.38;10.30;;;;;;;;;;6320413;28;20039;-76
2022/04/03 13:46:00;;;;;;;16.33;9.55;;;;;;;;;;6319948;28;20402;-74
2022/04/03 13:49:24;;;;;;;14.77;9.00;;;;;;;;;;6319357;28;20051;-76
2022/04/03 13:52:27;;;;;;;15.85;9.50;;;;;;;;;;6320845;28;20040;-76
2022/04/03 13:55:33;;;;;;;14.90;9.05;;;;;;;;;;6312694;28;20048;-76
2022/04/03 13:58:36;;;;;;;14.75;8.75;;;;;;;;;;6297662;28;20394;-77
2022/04/03 14:01:40;;;;;;;13.48;8.75;;;;;;;;;;6316793;28;20425;-75
2022/04/03 14:04:43;;;;;;;13.63;8.73;;;;;;;;;;6319425;28;20040;-75
2022/04/03 14:07:46;;;;;;;13.73;8.90;;;;;;;;;;6316534;28;20543;-75
2022/04/03 14:10:53;;;;;;;14.68;8.43;;;;;;;;;;6318796;28;20379;-76
2022/04/03 14:13:56;;;;;;;11.80;8.32;;;;;;;;;;6318124;28;20504;-76
2022/04/03 14:17:00;;;;;;;14.20;8.43;;;;;;;;;;6319257;28;20044;-75
2022/04/03 14:20:08;;;;;;;13.65;8.93;;;;;;;;;;6317621;28;20173;-76
2022/04/03 14:23:11;;;;;;;;;;;;;;;;;;6318719;28;20101;-76
2022/04/03 14:26:16;;;;;;;14.05;9.23;;;;;;;;;;6318669;28;20429;-76
2022/04/03 14:29:19;;;;;;;13.10;8.40;;;;;;;;;;6318622;28;20055;-76
2022/04/03 14:32:24;;;;;;;11.10;7.88;;;;;;;;;;6317977;28;20040;-76
2022/04/03 14:35:27;;;;;;;13.35;8.43;;;;;;;;;;6318861;28;20036;-75
2022/04/03 14:38:30;;;;;;;14.27;9.38;;;;;;;;;;6317342;28;20051;-76
2022/04/03 14:41:34;;;;;;;15.27;8.90;;;;;;;;;;6319382;28;20040;-76
2022/04/03 14:44:37;;;;;;;14.00;8.15;;;;;;;;;;6320006;28;20036;-76
2022/04/03 14:47:44;;;;;;;16.17;8.88;;;;;;;;;;6318568;28;20100;-75
2022/04/03 14:50:47;;;;;;;14.55;7.95;;;;;;;;;;6316245;28;20054;-76
2022/04/03 14:53:52;;;;;;;12.68;8.00;;;;;;;;;;6317336;28;20044;-75
2022/04/03 14:56:55;;;;;;;14.35;8.52;;;;;;;;;;6317736;28;20075;-75
2022/04/03 15:00:04;;;;;;;15.98;8.63;;;;;;;;;;6318123;28;20089;-76
2022/04/03 15:03:09;;;;;;;13.32;8.20;;;;;;;;;;6317479;28;20069;-77
2022/04/03 15:06:12;;;;;;;14.47;7.73;;;;;;;;;;6317812;28;20052;-76
2022/04/03 15:09:31;;;;;;;11.32;7.88;;;;;;;;;;6318124;28;20292;-76
2022/04/03 15:12:34;;;;;;;11.15;7.47;;;;;;;;;;6316511;28;20039;-75
2022/04/03 15:15:37;;;;;;;12.35;8.15;;;;;;;;;;6317239;28;20406;-74
2022/04/03 15:18:44;;;;;;;14.30;9.07;;;;;;;;;;6317054;28;20506;-76
2022/04/03 15:21:47;;;;;;;12.32;8.30;;;;;;;;;;6317363;28;20126;-76
2022/04/03 15:24:51;;;;;;;13.63;9.00;;;;;;;;;;6318179;28;20048;-77
2022/04/03 15:27:56;;;;;;;12.98;8.85;;;;;;;;;;6318946;28;20131;-75
2022/04/03 15:31:02;;;;;;;13.73;9.15;;;;;;;;;;6317440;28;20401;-76
2022/04/03 15:34:06;;;;;;;13.82;8.57;;;;;;;;;;6315914;28;20501;-76
2022/04/03 15:37:10;;;;;;;14.70;8.57;;;;;;;;;;6316804;28;20043;-76
2022/04/03 15:40:14;;;;;;;15.82;7.85;;;;;;;;;;6316640;28;20093;-76
2022/04/03 15:43:20;;;;;;;12.93;8.05;;;;;;;;;;6317089;28;20483;-75
2022/04/03 15:46:23;;;;;;;15.00;8.68;;;;;;;;;;6316522;28;20084;-75
2022/04/03 15:49:28;;;;;;;13.73;8.57;;;;;;;;;;6317624;28;20051;-75
2022/04/03 15:52:31;;;;;;;12.75;8.10;;;;;;;;;;6314500;28;20493;-75
2022/04/03 15:55:34;;;;;;;14.18;8.23;;;;;;;;;;6315661;28;20048;-74
2022/04/03 15:58:37;;;;;;;16.08;7.38;;;;;;;;;;6314902;28;20401;-76
2022/04/03 16:01:41;;;;;;;14.35;8.75;;;;;;;;;;6315532;28;20520;-75
2022/04/03 16:04:45;;;;;;;12.38;7.93;;;;;;;;;;6316304;28;20505;-75
2022/04/03 16:07:48;;;;;;;14.60;8.77;;;;;;;;;;6317352;28;20052;-75
2022/04/03 16:10:51;;;;;;;14.90;8.77;;;;;;;;;;6315609;28;20185;-75
2022/04/03 16:13:54;;;;;;;12.02;8.00;;;;;;;;;;6292032;28;20079;-76
2022/04/03 16:16:58;;;;;;;12.95;8.48;;;;;;;;;;6290372;28;20048;-75
2022/04/03 16:20:02;;;;;;;14.38;8.88;;;;;;;;;;6308329;28;20051;-76
2022/04/03 16:23:05;;;;;;;13.07;9.10;;;;;;;;;;6314482;28;20048;-75
2022/04/03 16:26:09;;;;;;;14.57;8.63;;;;;;;;;;6317948;28;20047;-75
2022/04/03 16:29:11;;;;;;;13.65;8.95;;;;;;;;;;6319780;28;20453;-75
2022/04/03 16:32:15;;;;;;;14.38;9.48;;;;;;;;;;6317183;28;20056;-76
2022/04/03 16:35:19;;;;;;;13.32;8.57;;;;;;;;;;6314770;28;20067;-75
2022/04/03 16:38:22;;;;;;;13.23;8.25;;;;;;;;;;6315208;28;20040;-76
2022/04/03 16:41:27;;;;;;;17.23;9.73;;;;;;;;;;6317443;28;20478;-76
2022/04/03 16:44:30;;;;;;;;;;;;;;;;;;6315154;28;20482;-75
2022/04/03 16:47:33;;;;;;;13.38;8.00;;;;;;;;;;6314537;28;19920;-75
2022/04/03 16:50:40;;;;;;;13.18;8.60;;;;;;;;;;6316510;28;20048;-75
2022/04/03 16:53:43;;;;;;;13.50;8.55;;;;;;;;;;6315161;28;20166;-74
2022/04/03 16:56:46;;;;;;;15.85;8.98;;;;;;;;;;6315661;28;20045;-75
2022/04/03 16:59:51;;;;;;;14.67;8.13;;;;;;;;;;6316638;28;20051;-74
2022/04/03 17:02:55;;;;;;;14.15;8.57;;;;;;;;;;6320779;28;20044;-74
2022/04/03 17:06:00;;;;;;;15.20;8.50;;;;;;;;;;6319843;28;20040;-74
2022/04/03 17:09:03;;;;;;;12.10;8.07;;;;;;;;;;6320430;28;20040;-74
2022/04/03 17:12:07;;;;;;;15.05;8.45;;;;;;;;;;6321841;28;20056;-74
2022/04/03 17:15:11;;;;;;;13.45;7.78;;;;;;;;;;6319956;28;20048;-74
2022/04/03 17:18:16;;;;;;;11.70;7.97;;;;;;;;;;6320696;28;20205;-74
2022/04/03 17:21:21;;;;;;;15.53;8.30;;;;;;;;;;6321588;28;20044;-73
2022/04/03 17:24:26;;;;;;;13.82;8.93;;;;;;;;;;6320180;28;20040;-73
2022/04/03 17:27:32;;;;;;;13.73;7.70;;;;;;;;;;6320512;28;20402;-74
2022/04/03 17:30:35;;;;;;;11.88;7.05;;;;;;;;;;6320570;28;20040;-74
2022/04/03 17:33:39;;;;;;;10.65;6.63;;;;;;;;;;6321258;28;20048;-74
2022/04/03 17:36:43;;;;;;;16.02;8.40;;;;;;;;;;6319156;28;20400;-74
2022/04/03 17:39:46;;;;;;;14.27;7.63;;;;;;;;;;6319878;28;20043;-74
2022/04/03 17:42:49;;;;;;;11.15;7.40;;;;;;;;;;6320009;28;20052;-75
2022/04/03 17:45:52;;;;;;;13.45;7.05;;;;;;;;;;6320721;28;20050;-76
2022/04/03 17:48:55;;;;;;;10.65;6.93;;;;;;;;;;6318556;28;20393;-74
2022/04/03 17:52:00;;;;;;;13.73;6.55;;;;;;;;;;6319016;28;20047;-74
2022/04/03 17:55:08;;;;;;;10.05;6.50;;;;;;;;;;6319595;28;20054;-74
2022/04/03 17:58:12;;;;;;;10.10;6.18;;;;;;;;;;6318818;28;20048;-74
2022/04/03 18:01:18;;;;;;;11.82;6.93;;;;;;;;;;6317902;28;20050;-75